sensor_id;sensor_type;location;lat;lon;timestamp;temperature;humidity
21622;DHT22;10973;46.706;12.340;2023-06-26T00:00:06;14.70;99.90
21622;DHT22;10973;46.706;12.340;2023-06-26T00:02:57;14.60;99.90
21622;DHT22;10973;46.706;12.340;2023-06-26T00:05:46;14.70;99.90
21622;DHT22;10973;46.706;12.340;2023-06-26T00:08:27;14.60;99.90
21622;DHT22;10973;46.706;12.340;2023-06-26T00:11:13;14.70;99.90
21622;DHT22;10973;46.706;12.340;2023-06-26T00:14:10;14.80;99.90
21622;DHT22;10973;46.706;12.340;2023-06-26T00:17:04;14.80;99.90
21622;DHT22;10973;46.706;12.340;2023-06-26T00:19:57;14.60;99.90
21622;DHT22;10973;46.706;12.340;2023-06-26T00:23:16;14.70;99.90
21622;DHT22;10973;46.706;12.340;2023-06-26T00:26:00;14.50;99.90
21622;DHT22;10973;46.706;12.340;2023-06-26T00:28:55;14.40;99.90
21622;DHT22;10973;46.706;12.340;2023-06-26T00:31:35;14.40;99.90
21622;DHT22;10973;46.706;12.340;2023-06-26T00:37:19;14.20;99.90
21622;DHT22;10973;46.706;12.340;2023-06-26T00:39:59;14.20;99.90
21622;DHT22;10973;46.706;12.340;2023-06-26T00:42:38;14.10;99.90
21622;DHT22;10973;46.706;12.340;2023-06-26T00:45:24;14.10;99.90
21622;DHT22;10973;46.706;12.340;2023-06-26T00:48:18;14.10;99.90
21622;DHT22;10973;46.706;12.340;2023-06-26T00:50:53;14.00;99.90
21622;DHT22;10973;46.706;12.340;2023-06-26T00:53:28;14.10;99.90
21622;DHT22;10973;46.706;12.340;2023-06-26T00:56:15;14.00;99.90
21622;DHT22;10973;46.706;12.340;2023-06-26T00:59:01;14.00;99.90
21622;DHT22;10973;46.706;12.340;2023-06-26T01:01:45;14.00;99.90
21622;DHT22;10973;46.706;12.340;2023-06-26T01:04:31;13.90;99.90
21622;DHT22;10973;46.706;12.340;2023-06-26T01:07:10;13.90;99.90
21622;DHT22;10973;46.706;12.340;2023-06-26T01:09:43;13.80;99.90
21622;DHT22;10973;46.706;12.340;2023-06-26T01:12:33;13.90;99.90
21622;DHT22;10973;46.706;12.340;2023-06-26T01:15:13;13.80;99.90
21622;DHT22;10973;46.706;12.340;2023-06-26T01:17:45;13.80;99.90
21622;DHT22;10973;46.706;12.340;2023-06-26T01:20:23;13.70;99.90
21622;DHT22;10973;46.706;12.340;2023-06-26T01:23:22;13.70;99.90
21622;DHT22;10973;46.706;12.340;2023-06-26T01:26:21;13.80;99.90
21622;DHT22;10973;46.706;12.340;2023-06-26T01:28:54;13.60;99.90
21622;DHT22;10973;46.706;12.340;2023-06-26T01:31:40;13.50;99.90
21622;DHT22;10973;46.706;12.340;2023-06-26T01:34:13;13.60;99.90
21622;DHT22;10973;46.706;12.340;2023-06-26T01:36:52;13.50;99.90
21622;DHT22;10973;46.706;12.340;2023-06-26T01:39:32;13.40;99.90
21622;DHT22;10973;46.706;12.340;2023-06-26T01:42:20;13.30;99.90
21622;DHT22;10973;46.706;12.340;2023-06-26T01:44:58;13.40;99.90
21622;DHT22;10973;46.706;12.340;2023-06-26T01:47:52;13.30;99.90
21622;DHT22;10973;46.706;12.340;2023-06-26T01:50:52;13.30;99.90
21622;DHT22;10973;46.706;12.340;2023-06-26T01:53:41;13.20;99.90
21622;DHT22;10973;46.706;12.340;2023-06-26T01:56:26;13.20;99.90
21622;DHT22;10973;46.706;12.340;2023-06-26T01:59:03;13.20;99.90
21622;DHT22;10973;46.706;12.340;2023-06-26T02:01:44;13.10;99.90
21622;DHT22;10973;46.706;12.340;2023-06-26T02:04:31;13.10;99.90
21622;DHT22;10973;46.706;12.340;2023-06-26T02:07:14;13.00;99.90
21622;DHT22;10973;46.706;12.340;2023-06-26T02:10:05;13.00;99.90
21622;DHT22;10973;46.706;12.340;2023-06-26T02:12:48;13.00;99.90
21622;DHT22;10973;46.706;12.340;2023-06-26T02:15:25;12.90;99.90
21622;DHT22;10973;46.706;12.340;2023-06-26T02:18:15;12.90;99.90
21622;DHT22;10973;46.706;12.340;2023-06-26T02:21:06;13.00;99.90
21622;DHT22;10973;46.706;12.340;2023-06-26T02:23:49;12.90;99.90
21622;DHT22;10973;46.706;12.340;2023-06-26T02:26:21;12.80;99.90
21622;DHT22;10973;46.706;12.340;2023-06-26T02:28:57;12.80;99.90
21622;DHT22;10973;46.706;12.340;2023-06-26T02:31:47;12.70;99.90
21622;DHT22;10973;46.706;12.340;2023-06-26T02:34:38;12.70;99.90
21622;DHT22;10973;46.706;12.340;2023-06-26T02:37:40;12.80;99.90
21622;DHT22;10973;46.706;12.340;2023-06-26T02:40:20;12.60;99.90
21622;DHT22;10973;46.706;12.340;2023-06-26T02:43:00;12.60;99.90
21622;DHT22;10973;46.706;12.340;2023-06-26T02:45:29;12.70;99.90
21622;DHT22;10973;46.706;12.340;2023-06-26T02:48:35;12.70;99.90
21622;DHT22;10973;46.706;12.340;2023-06-26T02:51:26;12.70;99.90
21622;DHT22;10973;46.706;12.340;2023-06-26T02:54:37;12.60;99.90
21622;DHT22;10973;46.706;12.340;2023-06-26T02:57:46;12.60;99.90
21622;DHT22;10973;46.706;12.340;2023-06-26T03:00:33;12.60;99.90
21622;DHT22;10973;46.706;12.340;2023-06-26T03:03:20;12.50;99.90
21622;DHT22;10973;46.706;12.340;2023-06-26T03:06:28;12.50;99.90
21622;DHT22;10973;46.706;12.340;2023-06-26T03:09:30;12.50;99.90
21622;DHT22;10973;46.706;12.340;2023-06-26T03:12:22;12.50;99.90
21622;DHT22;10973;46.706;12.340;2023-06-26T03:15:04;12.40;99.90
21622;DHT22;10973;46.706;12.340;2023-06-26T03:17:56;12.30;99.90
21622;DHT22;10973;46.706;12.340;2023-06-26T03:20:33;12.30;99.90
21622;DHT22;10973;46.706;12.340;2023-06-26T03:23:16;12.30;99.90
21622;DHT22;10973;46.706;12.340;2023-06-26T03:25:55;12.30;99.90
21622;DHT22;10973;46.706;12.340;2023-06-26T03:28:30;12.20;99.90
21622;DHT22;10973;46.706;12.340;2023-06-26T03:31:10;12.30;99.90
21622;DHT22;10973;46.706;12.340;2023-06-26T03:33:45;12.30;99.90
21622;DHT22;10973;46.706;12.340;2023-06-26T03:36:37;12.30;99.90
21622;DHT22;10973;46.706;12.340;2023-06-26T03:39:18;12.20;99.90
21622;DHT22;10973;46.706;12.340;2023-06-26T03:42:07;12.30;99.90
21622;DHT22;10973;46.706;12.340;2023-06-26T03:44:48;12.20;99.90
21622;DHT22;10973;46.706;12.340;2023-06-26T03:50:47;12.10;99.90
21622;DHT22;10973;46.706;12.340;2023-06-26T04:00:18;12.20;99.90
21622;DHT22;10973;46.706;12.340;2023-06-26T04:03:11;12.20;99.90
21622;DHT22;10973;46.706;12.340;2023-06-26T04:06:04;12.10;99.90
21622;DHT22;10973;46.706;12.340;2023-06-26T04:12:10;12.20;99.90
21622;DHT22;10973;46.706;12.340;2023-06-26T04:15:10;12.10;99.90
21622;DHT22;10973;46.706;12.340;2023-06-26T04:18:29;12.00;99.90
21622;DHT22;10973;46.706;12.340;2023-06-26T04:21:12;12.10;99.90
21622;DHT22;10973;46.706;12.340;2023-06-26T04:24:40;12.20;99.90
21622;DHT22;10973;46.706;12.340;2023-06-26T04:27:28;12.10;99.90
21622;DHT22;10973;46.706;12.340;2023-06-26T04:30:31;12.10;99.90
21622;DHT22;10973;46.706;12.340;2023-06-26T04:37:19;12.10;99.90
21622;DHT22;10973;46.706;12.340;2023-06-26T04:43:53;12.20;99.90
21622;DHT22;10973;46.706;12.340;2023-06-26T04:50:09;12.20;99.90
21622;DHT22;10973;46.706;12.340;2023-06-26T04:53:12;12.20;99.90
21622;DHT22;10973;46.706;12.340;2023-06-26T04:56:00;12.20;99.90
21622;DHT22;10973;46.706;12.340;2023-06-26T04:59:15;12.30;99.90
21622;DHT22;10973;46.706;12.340;2023-06-26T05:02:40;12.20;99.90
21622;DHT22;10973;46.706;12.340;2023-06-26T05:05:45;12.20;99.90
21622;DHT22;10973;46.706;12.340;2023-06-26T05:08:48;12.20;99.90
21622;DHT22;10973;46.706;12.340;2023-06-26T05:12:04;12.30;99.90
21622;DHT22;10973;46.706;12.340;2023-06-26T05:21:29;12.20;99.90
21622;DHT22;10973;46.706;12.340;2023-06-26T05:24:48;12.30;99.90
21622;DHT22;10973;46.706;12.340;2023-06-26T05:27:55;12.40;99.90
21622;DHT22;10973;46.706;12.340;2023-06-26T05:30:38;12.50;99.90
21622;DHT22;10973;46.706;12.340;2023-06-26T05:33:39;12.70;99.90
21622;DHT22;10973;46.706;12.340;2023-06-26T05:36:58;13.00;99.90
21622;DHT22;10973;46.706;12.340;2023-06-26T05:39:51;13.10;99.90
21622;DHT22;10973;46.706;12.340;2023-06-26T05:43:00;13.20;99.90
21622;DHT22;10973;46.706;12.340;2023-06-26T05:46:25;13.50;99.90
21622;DHT22;10973;46.706;12.340;2023-06-26T05:49:41;13.60;99.90
21622;DHT22;10973;46.706;12.340;2023-06-26T05:53:08;13.80;99.90
21622;DHT22;10973;46.706;12.340;2023-06-26T05:58:49;14.10;99.90
21622;DHT22;10973;46.706;12.340;2023-06-26T06:01:27;14.20;99.90
21622;DHT22;10973;46.706;12.340;2023-06-26T06:04:22;14.40;99.90
21622;DHT22;10973;46.706;12.340;2023-06-26T06:07:02;14.50;99.90
21622;DHT22;10973;46.706;12.340;2023-06-26T06:09:36;14.60;99.90
21622;DHT22;10973;46.706;12.340;2023-06-26T06:12:20;14.80;99.90
21622;DHT22;10973;46.706;12.340;2023-06-26T06:15:14;14.90;99.90
21622;DHT22;10973;46.706;12.340;2023-06-26T06:18:16;15.00;99.90
21622;DHT22;10973;46.706;12.340;2023-06-26T06:21:22;15.10;99.90
21622;DHT22;10973;46.706;12.340;2023-06-26T06:24:04;15.20;99.90
21622;DHT22;10973;46.706;12.340;2023-06-26T06:26:56;15.30;99.90
21622;DHT22;10973;46.706;12.340;2023-06-26T06:29:27;15.40;99.90
21622;DHT22;10973;46.706;12.340;2023-06-26T06:32:12;15.50;99.90
21622;DHT22;10973;46.706;12.340;2023-06-26T06:34:53;15.60;99.90
21622;DHT22;10973;46.706;12.340;2023-06-26T06:37:51;15.60;99.90
21622;DHT22;10973;46.706;12.340;2023-06-26T06:40:50;15.70;99.90
21622;DHT22;10973;46.706;12.340;2023-06-26T06:43:58;15.80;99.90
21622;DHT22;10973;46.706;12.340;2023-06-26T06:46:28;15.90;99.90
21622;DHT22;10973;46.706;12.340;2023-06-26T06:49:12;16.00;99.90
21622;DHT22;10973;46.706;12.340;2023-06-26T06:51:55;16.10;99.90
21622;DHT22;10973;46.706;12.340;2023-06-26T06:55:15;16.20;99.90
21622;DHT22;10973;46.706;12.340;2023-06-26T06:58:00;16.30;99.90
21622;DHT22;10973;46.706;12.340;2023-06-26T07:00:38;16.40;99.90
21622;DHT22;10973;46.706;12.340;2023-06-26T07:03:35;16.50;99.90
21622;DHT22;10973;46.706;12.340;2023-06-26T07:06:02;16.60;99.90
21622;DHT22;10973;46.706;12.340;2023-06-26T07:08:33;16.70;99.90
21622;DHT22;10973;46.706;12.340;2023-06-26T07:11:11;16.80;99.90
21622;DHT22;10973;46.706;12.340;2023-06-26T07:14:02;16.80;99.90
21622;DHT22;10973;46.706;12.340;2023-06-26T07:16:44;16.90;99.90
21622;DHT22;10973;46.706;12.340;2023-06-26T07:19:27;17.00;99.90
21622;DHT22;10973;46.706;12.340;2023-06-26T07:22:02;17.20;99.90
21622;DHT22;10973;46.706;12.340;2023-06-26T07:24:36;17.20;99.90
21622;DHT22;10973;46.706;12.340;2023-06-26T07:27:20;17.30;99.90
21622;DHT22;10973;46.706;12.340;2023-06-26T07:30:08;17.40;99.90
21622;DHT22;10973;46.706;12.340;2023-06-26T07:32:44;17.50;99.90
21622;DHT22;10973;46.706;12.340;2023-06-26T07:35:33;17.60;99.90
21622;DHT22;10973;46.706;12.340;2023-06-26T07:38:28;17.90;99.90
21622;DHT22;10973;46.706;12.340;2023-06-26T07:41:02;18.00;99.90
21622;DHT22;10973;46.706;12.340;2023-06-26T07:43:39;17.90;99.90
21622;DHT22;10973;46.706;12.340;2023-06-26T07:46:10;18.00;99.90
21622;DHT22;10973;46.706;12.340;2023-06-26T07:48:41;18.10;99.90
21622;DHT22;10973;46.706;12.340;2023-06-26T07:51:09;18.10;99.90
21622;DHT22;10973;46.706;12.340;2023-06-26T07:53:44;18.20;99.90
21622;DHT22;10973;46.706;12.340;2023-06-26T07:56:13;18.30;99.90
21622;DHT22;10973;46.706;12.340;2023-06-26T07:58:41;18.30;99.90
21622;DHT22;10973;46.706;12.340;2023-06-26T08:01:09;18.40;99.90
21622;DHT22;10973;46.706;12.340;2023-06-26T08:03:37;18.60;97.30
21622;DHT22;10973;46.706;12.340;2023-06-26T08:06:05;18.90;95.80
21622;DHT22;10973;46.706;12.340;2023-06-26T08:08:34;19.00;95.00
21622;DHT22;10973;46.706;12.340;2023-06-26T08:11:02;19.20;94.80
21622;DHT22;10973;46.706;12.340;2023-06-26T08:13:29;19.30;94.60
21622;DHT22;10973;46.706;12.340;2023-06-26T08:15:58;19.30;93.70
21622;DHT22;10973;46.706;12.340;2023-06-26T08:18:25;19.20;93.60
21622;DHT22;10973;46.706;12.340;2023-06-26T08:20:54;19.30;92.80
21622;DHT22;10973;46.706;12.340;2023-06-26T08:23:22;19.40;92.60
21622;DHT22;10973;46.706;12.340;2023-06-26T08:25:52;19.40;92.50
21622;DHT22;10973;46.706;12.340;2023-06-26T08:28:20;19.40;92.10
21622;DHT22;10973;46.706;12.340;2023-06-26T08:30:47;19.40;92.40
21622;DHT22;10973;46.706;12.340;2023-06-26T08:33:15;19.50;92.20
21622;DHT22;10973;46.706;12.340;2023-06-26T08:35:42;19.60;90.90
21622;DHT22;10973;46.706;12.340;2023-06-26T08:38:09;19.70;91.90
21622;DHT22;10973;46.706;12.340;2023-06-26T08:40:37;19.70;91.70
21622;DHT22;10973;46.706;12.340;2023-06-26T08:43:05;19.70;90.80
21622;DHT22;10973;46.706;12.340;2023-06-26T08:45:33;19.80;90.50
21622;DHT22;10973;46.706;12.340;2023-06-26T08:48:01;19.90;90.40
21622;DHT22;10973;46.706;12.340;2023-06-26T08:50:34;20.00;88.00
21622;DHT22;10973;46.706;12.340;2023-06-26T08:53:19;20.10;88.40
21622;DHT22;10973;46.706;12.340;2023-06-26T08:55:49;20.00;87.90
21622;DHT22;10973;46.706;12.340;2023-06-26T08:58:19;20.10;87.80
21622;DHT22;10973;46.706;12.340;2023-06-26T09:00:47;20.10;88.50
21622;DHT22;10973;46.706;12.340;2023-06-26T09:03:15;20.10;87.60
21622;DHT22;10973;46.706;12.340;2023-06-26T09:05:43;20.20;88.70
21622;DHT22;10973;46.706;12.340;2023-06-26T09:08:10;20.20;86.10
21622;DHT22;10973;46.706;12.340;2023-06-26T09:10:38;20.60;85.10
21622;DHT22;10973;46.706;12.340;2023-06-26T09:13:06;20.50;84.20
21622;DHT22;10973;46.706;12.340;2023-06-26T09:15:57;20.60;86.10
21622;DHT22;10973;46.706;12.340;2023-06-26T09:18:33;20.60;85.60
21622;DHT22;10973;46.706;12.340;2023-06-26T09:21:10;20.60;84.60
21622;DHT22;10973;46.706;12.340;2023-06-26T09:23:49;20.60;84.90
21622;DHT22;10973;46.706;12.340;2023-06-26T09:26:27;20.60;83.80
21622;DHT22;10973;46.706;12.340;2023-06-26T09:29:18;20.70;85.10
21622;DHT22;10973;46.706;12.340;2023-06-26T09:31:56;20.80;83.80
21622;DHT22;10973;46.706;12.340;2023-06-26T09:34:43;21.10;79.60
21622;DHT22;10973;46.706;12.340;2023-06-26T09:37:33;21.00;81.90
21622;DHT22;10973;46.706;12.340;2023-06-26T09:40:13;21.00;82.40
21622;DHT22;10973;46.706;12.340;2023-06-26T09:42:44;21.10;81.90
21622;DHT22;10973;46.706;12.340;2023-06-26T09:45:18;21.10;80.70
21622;DHT22;10973;46.706;12.340;2023-06-26T09:47:49;21.10;82.20
21622;DHT22;10973;46.706;12.340;2023-06-26T09:50:38;21.30;81.70
21622;DHT22;10973;46.706;12.340;2023-06-26T09:53:38;21.60;80.10
21622;DHT22;10973;46.706;12.340;2023-06-26T09:56:22;21.80;76.30
21622;DHT22;10973;46.706;12.340;2023-06-26T09:59:02;21.80;76.80
21622;DHT22;10973;46.706;12.340;2023-06-26T10:04:38;21.70;78.60
21622;DHT22;10973;46.706;12.340;2023-06-26T10:07:17;21.80;77.70
21622;DHT22;10973;46.706;12.340;2023-06-26T10:09:56;21.70;78.00
21622;DHT22;10973;46.706;12.340;2023-06-26T10:12:42;21.80;75.70
21622;DHT22;10973;46.706;12.340;2023-06-26T10:15:26;21.90;76.50
21622;DHT22;10973;46.706;12.340;2023-06-26T10:18:22;22.10;73.60
21622;DHT22;10973;46.706;12.340;2023-06-26T10:21:15;22.10;76.10
21622;DHT22;10973;46.706;12.340;2023-06-26T10:24:24;22.10;74.30
21622;DHT22;10973;46.706;12.340;2023-06-26T10:27:20;22.10;73.80
21622;DHT22;10973;46.706;12.340;2023-06-26T10:30:20;22.20;74.30
21622;DHT22;10973;46.706;12.340;2023-06-26T10:33:05;22.20;75.70
21622;DHT22;10973;46.706;12.340;2023-06-26T10:39:59;22.40;73.80
21622;DHT22;10973;46.706;12.340;2023-06-26T10:43:07;22.60;72.40
21622;DHT22;10973;46.706;12.340;2023-06-26T10:46:04;22.70;74.50
21622;DHT22;10973;46.706;12.340;2023-06-26T10:49:10;22.70;74.70
21622;DHT22;10973;46.706;12.340;2023-06-26T10:52:13;22.90;72.30
21622;DHT22;10973;46.706;12.340;2023-06-26T10:54:59;22.90;72.40
21622;DHT22;10973;46.706;12.340;2023-06-26T10:57:49;23.00;71.90
21622;DHT22;10973;46.706;12.340;2023-06-26T11:07:26;23.30;68.80
21622;DHT22;10973;46.706;12.340;2023-06-26T11:10:14;23.50;68.90
21622;DHT22;10973;46.706;12.340;2023-06-26T11:13:01;23.60;68.60
21622;DHT22;10973;46.706;12.340;2023-06-26T11:16:00;23.70;68.40
21622;DHT22;10973;46.706;12.340;2023-06-26T11:19:02;23.80;68.30
21622;DHT22;10973;46.706;12.340;2023-06-26T11:21:45;23.90;67.60
21622;DHT22;10973;46.706;12.340;2023-06-26T11:24:24;24.10;69.60
21622;DHT22;10973;46.706;12.340;2023-06-26T11:27:11;24.20;65.40
21622;DHT22;10973;46.706;12.340;2023-06-26T11:30:01;24.20;64.00
21622;DHT22;10973;46.706;12.340;2023-06-26T11:33:13;24.30;63.80
21622;DHT22;10973;46.706;12.340;2023-06-26T11:36:08;24.40;64.90
21622;DHT22;10973;46.706;12.340;2023-06-26T11:38:56;24.60;64.70
21622;DHT22;10973;46.706;12.340;2023-06-26T11:41:40;24.80;63.00
21622;DHT22;10973;46.706;12.340;2023-06-26T11:44:26;25.00;64.10
21622;DHT22;10973;46.706;12.340;2023-06-26T11:47:05;25.20;63.40
21622;DHT22;10973;46.706;12.340;2023-06-26T11:50:14;25.40;59.20
21622;DHT22;10973;46.706;12.340;2023-06-26T11:52:58;25.70;60.40
21622;DHT22;10973;46.706;12.340;2023-06-26T11:55:43;25.90;60.60
21622;DHT22;10973;46.706;12.340;2023-06-26T11:58:25;26.10;60.70
21622;DHT22;10973;46.706;12.340;2023-06-26T12:01:08;26.30;59.90
21622;DHT22;10973;46.706;12.340;2023-06-26T12:03:49;26.40;59.20
21622;DHT22;10973;46.706;12.340;2023-06-26T12:07:09;26.50;58.70
21622;DHT22;10973;46.706;12.340;2023-06-26T12:09:43;26.60;58.40
21622;DHT22;10973;46.706;12.340;2023-06-26T12:12:17;26.50;59.20
21622;DHT22;10973;46.706;12.340;2023-06-26T12:14:51;26.20;58.30
21622;DHT22;10973;46.706;12.340;2023-06-26T12:17:23;26.50;58.90
21622;DHT22;10973;46.706;12.340;2023-06-26T12:19:57;26.10;58.40
21622;DHT22;10973;46.706;12.340;2023-06-26T12:22:46;26.10;58.30
21622;DHT22;10973;46.706;12.340;2023-06-26T12:25:24;26.20;58.60
21622;DHT22;10973;46.706;12.340;2023-06-26T12:27:51;26.60;59.00
21622;DHT22;10973;46.706;12.340;2023-06-26T12:30:23;26.80;58.20
21622;DHT22;10973;46.706;12.340;2023-06-26T12:32:51;26.90;58.10
21622;DHT22;10973;46.706;12.340;2023-06-26T12:35:21;27.10;57.80
21622;DHT22;10973;46.706;12.340;2023-06-26T12:38:05;27.20;55.90
21622;DHT22;10973;46.706;12.340;2023-06-26T12:40:52;27.30;54.30
21622;DHT22;10973;46.706;12.340;2023-06-26T12:43:35;27.20;53.30
21622;DHT22;10973;46.706;12.340;2023-06-26T12:46:06;27.40;54.70
21622;DHT22;10973;46.706;12.340;2023-06-26T12:48:54;27.60;53.90
21622;DHT22;10973;46.706;12.340;2023-06-26T12:52:04;27.80;55.20
21622;DHT22;10973;46.706;12.340;2023-06-26T12:55:10;27.80;54.40
21622;DHT22;10973;46.706;12.340;2023-06-26T12:58:05;27.70;56.90
21622;DHT22;10973;46.706;12.340;2023-06-26T13:00:55;27.70;57.20
21622;DHT22;10973;46.706;12.340;2023-06-26T13:03:37;27.80;54.80
21622;DHT22;10973;46.706;12.340;2023-06-26T13:06:26;28.10;54.60
21622;DHT22;10973;46.706;12.340;2023-06-26T13:09:05;28.20;53.70
21622;DHT22;10973;46.706;12.340;2023-06-26T13:11:57;28.30;54.30
21622;DHT22;10973;46.706;12.340;2023-06-26T13:14:31;28.40;54.20
21622;DHT22;10973;46.706;12.340;2023-06-26T13:17:06;28.40;54.70
21622;DHT22;10973;46.706;12.340;2023-06-26T13:19:42;28.60;54.00
21622;DHT22;10973;46.706;12.340;2023-06-26T13:25:12;28.70;52.40
21622;DHT22;10973;46.706;12.340;2023-06-26T13:28:02;28.80;53.00
21622;DHT22;10973;46.706;12.340;2023-06-26T13:31:09;28.50;53.30
21622;DHT22;10973;46.706;12.340;2023-06-26T13:33:58;28.60;52.00
21622;DHT22;10973;46.706;12.340;2023-06-26T13:36:32;28.80;52.30
21622;DHT22;10973;46.706;12.340;2023-06-26T13:39:09;28.90;51.20
21622;DHT22;10973;46.706;12.340;2023-06-26T13:42:18;29.10;50.70
21622;DHT22;10973;46.706;12.340;2023-06-26T13:45:16;29.40;51.20
21622;DHT22;10973;46.706;12.340;2023-06-26T13:47:59;29.50;49.50
21622;DHT22;10973;46.706;12.340;2023-06-26T13:50:49;29.60;51.00
21622;DHT22;10973;46.706;12.340;2023-06-26T13:53:32;29.80;51.60
21622;DHT22;10973;46.706;12.340;2023-06-26T13:56:13;29.60;50.70
21622;DHT22;10973;46.706;12.340;2023-06-26T13:58:47;29.90;51.20
21622;DHT22;10973;46.706;12.340;2023-06-26T14:01:22;30.10;51.00
21622;DHT22;10973;46.706;12.340;2023-06-26T14:04:05;30.30;50.20
21622;DHT22;10973;46.706;12.340;2023-06-26T14:07:02;30.50;49.30
21622;DHT22;10973;46.706;12.340;2023-06-26T14:09:43;30.40;48.60
21622;DHT22;10973;46.706;12.340;2023-06-26T14:12:29;30.50;47.80
21622;DHT22;10973;46.706;12.340;2023-06-26T14:15:09;30.10;47.80
21622;DHT22;10973;46.706;12.340;2023-06-26T14:18:03;30.60;48.10
21622;DHT22;10973;46.706;12.340;2023-06-26T14:20:59;30.70;47.90
21622;DHT22;10973;46.706;12.340;2023-06-26T14:23:51;30.80;48.10
21622;DHT22;10973;46.706;12.340;2023-06-26T14:26:41;30.90;48.30
21622;DHT22;10973;46.706;12.340;2023-06-26T14:29:34;30.80;47.80
21622;DHT22;10973;46.706;12.340;2023-06-26T14:32:24;30.80;47.70
21622;DHT22;10973;46.706;12.340;2023-06-26T14:35:14;31.00;48.30
21622;DHT22;10973;46.706;12.340;2023-06-26T14:38:07;30.80;52.80
21622;DHT22;10973;46.706;12.340;2023-06-26T14:41:06;30.50;51.30
21622;DHT22;10973;46.706;12.340;2023-06-26T14:43:57;30.40;52.70
21622;DHT22;10973;46.706;12.340;2023-06-26T14:46:45;30.40;51.50
21622;DHT22;10973;46.706;12.340;2023-06-26T14:49:28;30.30;50.30
21622;DHT22;10973;46.706;12.340;2023-06-26T14:52:50;30.30;50.30
21622;DHT22;10973;46.706;12.340;2023-06-26T14:56:01;30.50;50.40
21622;DHT22;10973;46.706;12.340;2023-06-26T14:58:46;30.40;50.00
21622;DHT22;10973;46.706;12.340;2023-06-26T15:07:09;30.10;48.90
21622;DHT22;10973;46.706;12.340;2023-06-26T15:09:47;29.90;47.90
21622;DHT22;10973;46.706;12.340;2023-06-26T15:12:30;30.00;49.00
21622;DHT22;10973;46.706;12.340;2023-06-26T15:15:19;29.80;48.50
21622;DHT22;10973;46.706;12.340;2023-06-26T15:17:59;30.00;49.10
21622;DHT22;10973;46.706;12.340;2023-06-26T15:20:49;29.70;49.20
21622;DHT22;10973;46.706;12.340;2023-06-26T15:23:49;29.70;48.40
21622;DHT22;10973;46.706;12.340;2023-06-26T15:26:34;29.90;48.60
21622;DHT22;10973;46.706;12.340;2023-06-26T15:29:21;29.90;46.90
21622;DHT22;10973;46.706;12.340;2023-06-26T15:31:58;30.50;46.70
21622;DHT22;10973;46.706;12.340;2023-06-26T15:34:41;30.60;45.70
21622;DHT22;10973;46.706;12.340;2023-06-26T15:37:36;30.90;46.00
21622;DHT22;10973;46.706;12.340;2023-06-26T15:40:20;31.00;46.00
21622;DHT22;10973;46.706;12.340;2023-06-26T15:43:13;31.20;45.60
21622;DHT22;10973;46.706;12.340;2023-06-26T15:45:47;31.30;44.60
21622;DHT22;10973;46.706;12.340;2023-06-26T15:51:22;30.70;45.90
21622;DHT22;10973;46.706;12.340;2023-06-26T15:54:02;30.40;46.80
21622;DHT22;10973;46.706;12.340;2023-06-26T15:56:42;30.60;47.00
21622;DHT22;10973;46.706;12.340;2023-06-26T15:59:15;30.20;45.40
21622;DHT22;10973;46.706;12.340;2023-06-26T16:02:01;29.60;45.10
21622;DHT22;10973;46.706;12.340;2023-06-26T16:04:41;29.50;46.20
21622;DHT22;10973;46.706;12.340;2023-06-26T16:07:16;30.00;47.10
21622;DHT22;10973;46.706;12.340;2023-06-26T16:09:56;30.20;46.30
21622;DHT22;10973;46.706;12.340;2023-06-26T16:12:42;30.30;46.10
21622;DHT22;10973;46.706;12.340;2023-06-26T16:15:44;30.40;48.10
21622;DHT22;10973;46.706;12.340;2023-06-26T16:18:21;30.00;45.60
21622;DHT22;10973;46.706;12.340;2023-06-26T16:21:06;29.70;45.90
21622;DHT22;10973;46.706;12.340;2023-06-26T16:24:07;29.80;46.40
21622;DHT22;10973;46.706;12.340;2023-06-26T16:26:52;30.00;47.90
21622;DHT22;10973;46.706;12.340;2023-06-26T16:29:46;29.80;47.70
21622;DHT22;10973;46.706;12.340;2023-06-26T16:32:18;29.60;47.20
21622;DHT22;10973;46.706;12.340;2023-06-26T16:35:08;29.50;47.90
21622;DHT22;10973;46.706;12.340;2023-06-26T16:37:45;29.40;47.90
21622;DHT22;10973;46.706;12.340;2023-06-26T16:40:20;29.10;46.70
21622;DHT22;10973;46.706;12.340;2023-06-26T16:43:33;29.10;47.40
21622;DHT22;10973;46.706;12.340;2023-06-26T16:46:22;28.90;47.80
21622;DHT22;10973;46.706;12.340;2023-06-26T16:49:09;28.80;48.40
21622;DHT22;10973;46.706;12.340;2023-06-26T16:51:52;28.60;47.90
21622;DHT22;10973;46.706;12.340;2023-06-26T16:54:56;28.50;48.40
21622;DHT22;10973;46.706;12.340;2023-06-26T16:57:52;28.40;54.50
21622;DHT22;10973;46.706;12.340;2023-06-26T17:00:37;28.30;59.20
21622;DHT22;10973;46.706;12.340;2023-06-26T17:03:11;28.00;61.10
21622;DHT22;10973;46.706;12.340;2023-06-26T17:05:57;27.80;62.60
21622;DHT22;10973;46.706;12.340;2023-06-26T17:08:39;27.60;64.20
21622;DHT22;10973;46.706;12.340;2023-06-26T17:11:22;27.50;65.20
21622;DHT22;10973;46.706;12.340;2023-06-26T17:14:19;27.20;65.80
21622;DHT22;10973;46.706;12.340;2023-06-26T17:17:22;27.20;67.50
21622;DHT22;10973;46.706;12.340;2023-06-26T17:20:10;27.10;69.20
21622;DHT22;10973;46.706;12.340;2023-06-26T17:23:05;26.90;70.50
21622;DHT22;10973;46.706;12.340;2023-06-26T17:25:49;26.80;70.50
21622;DHT22;10973;46.706;12.340;2023-06-26T17:28:37;26.70;70.70
21622;DHT22;10973;46.706;12.340;2023-06-26T17:31:25;26.50;72.30
21622;DHT22;10973;46.706;12.340;2023-06-26T17:34:18;26.40;72.60
21622;DHT22;10973;46.706;12.340;2023-06-26T17:37:00;26.30;73.20
21622;DHT22;10973;46.706;12.340;2023-06-26T17:39:43;26.20;73.60
21622;DHT22;10973;46.706;12.340;2023-06-26T17:42:27;26.10;73.40
21622;DHT22;10973;46.706;12.340;2023-06-26T17:45:02;26.00;73.90
21622;DHT22;10973;46.706;12.340;2023-06-26T17:47:31;25.90;75.30
21622;DHT22;10973;46.706;12.340;2023-06-26T17:50:00;25.90;75.30
21622;DHT22;10973;46.706;12.340;2023-06-26T17:52:30;25.80;75.30
21622;DHT22;10973;46.706;12.340;2023-06-26T17:54:58;25.80;76.20
21622;DHT22;10973;46.706;12.340;2023-06-26T17:57:27;25.60;76.40
21622;DHT22;10973;46.706;12.340;2023-06-26T17:59:56;25.60;77.40
21622;DHT22;10973;46.706;12.340;2023-06-26T18:02:25;25.60;77.70
21622;DHT22;10973;46.706;12.340;2023-06-26T18:04:54;25.50;77.80
21622;DHT22;10973;46.706;12.340;2023-06-26T18:07:23;25.50;78.10
21622;DHT22;10973;46.706;12.340;2023-06-26T18:09:56;25.30;78.70